createdAt,value
2022-11-19T00:01:13.699Z,13.80
2022-11-19T00:03:41.617Z,13.80
2022-11-19T00:06:10.768Z,13.30
2022-11-19T00:08:37.608Z,13.23
2022-11-19T00:11:13.336Z,13.45
2022-11-19T00:13:41.839Z,12.75
2022-11-19T00:16:11.580Z,13.30
2022-11-19T00:18:38.643Z,12.60
2022-11-19T00:21:12.197Z,12.98
2022-11-19T00:23:40.284Z,11.73
2022-11-19T00:26:12.327Z,12.80
2022-11-19T00:28:40.507Z,11.97
2022-11-19T00:31:09.441Z,12.55
2022-11-19T00:33:37.095Z,11.73
2022-11-19T00:36:05.940Z,12.27
2022-11-19T00:38:32.821Z,11.82
2022-11-19T00:40:59.704Z,12.60
2022-11-19T00:43:45.521Z,12.27
2022-11-19T00:46:32.642Z,11.63
2022-11-19T00:49:00.212Z,11.70
2022-11-19T00:51:29.582Z,11.70
2022-11-19T00:53:57.104Z,11.90
2022-11-19T00:56:26.002Z,12.52
2022-11-19T00:58:53.378Z,11.50
2022-11-19T01:01:21.961Z,11.70
2022-11-19T01:03:49.510Z,12.32
2022-11-19T01:06:19.751Z,12.23
2022-11-19T01:08:48.159Z,12.02
2022-11-19T01:11:18.388Z,13.10
2022-11-19T01:13:45.305Z,13.23
2022-11-19T01:16:26.923Z,13.80
2022-11-19T01:18:53.785Z,12.23
2022-11-19T01:21:22.398Z,12.45
2022-11-19T01:23:49.340Z,12.73
2022-11-19T01:26:16.658Z,13.40
2022-11-19T01:28:44.132Z,13.05
2022-11-19T01:31:15.577Z,13.93
2022-11-19T01:33:42.199Z,13.70
2022-11-19T01:36:14.500Z,13.02
2022-11-19T01:38:41.038Z,14.52
2022-11-19T01:41:08.339Z,12.45
2022-11-19T01:43:53.709Z,14.27
2022-11-19T01:46:22.750Z,14.07
2022-11-19T01:48:55.051Z,13.55
2022-11-19T01:51:27.064Z,13.73
2022-11-19T01:53:57.986Z,13.45
2022-11-19T01:56:26.493Z,13.70
2022-11-19T01:58:58.850Z,14.23
2022-11-19T02:01:25.583Z,14.73
2022-11-19T02:03:52.579Z,14.80
2022-11-19T02:06:19.246Z,15.52
2022-11-19T02:08:50.414Z,15.17
2022-11-19T02:11:35.553Z,15.20
2022-11-19T02:14:25.849Z,15.38
2022-11-19T02:17:12.510Z,15.07
2022-11-19T02:20:00.012Z,15.65
2022-11-19T02:22:55.708Z,15.80
2022-11-19T02:25:40.481Z,16.05
2022-11-19T02:28:38.026Z,16.02
2022-11-19T02:31:28.262Z,16.30
2022-11-19T02:33:59.823Z,16.77
2022-11-19T02:36:34.435Z,17.17
2022-11-19T02:39:18.447Z,16.75
2022-11-19T02:42:05.389Z,16.85
2022-11-19T02:44:59.147Z,16.90
2022-11-19T02:47:35.395Z,17.13
2022-11-19T02:50:17.300Z,16.90
2022-11-19T02:52:45.345Z,17.90
2022-11-19T02:55:17.425Z,18.85
2022-11-19T02:57:49.095Z,17.73
2022-11-19T03:00:34.884Z,19.20
2022-11-19T03:03:29.057Z,18.07
2022-11-19T03:06:02.253Z,17.83
2022-11-19T03:08:29.385Z,19.20
2022-11-19T03:11:27.519Z,18.65
2022-11-19T03:14:43.657Z,18.98
2022-11-19T03:17:38.993Z,19.30
2022-11-19T03:20:24.962Z,18.55
2022-11-19T03:22:58.030Z,17.88
2022-11-19T03:25:38.210Z,18.20
2022-11-19T03:28:09.960Z,17.60
2022-11-19T03:30:38.438Z,17.70
2022-11-19T03:33:10.262Z,18.85
2022-11-19T03:35:43.782Z,19.10
2022-11-19T03:38:16.653Z,18.10
2022-11-19T03:40:44.410Z,18.40
2022-11-19T03:43:15.802Z,18.20
2022-11-19T03:45:45.257Z,18.50
2022-11-19T03:48:15.222Z,18.10
2022-11-19T03:50:49.659Z,16.50
2022-11-19T03:53:17.849Z,18.77
2022-11-19T03:55:56.309Z,18.50
2022-11-19T03:58:26.697Z,17.80
2022-11-19T04:00:53.959Z,16.33
2022-11-19T04:03:20.686Z,17.05
2022-11-19T04:05:47.427Z,17.65
2022-11-19T04:08:14.120Z,17.57
2022-11-19T04:10:40.742Z,17.85
2022-11-19T04:13:07.492Z,16.70
2022-11-19T04:15:34.621Z,17.10
2022-11-19T04:18:01.221Z,15.77
2022-11-19T04:20:27.800Z,16.50
2022-11-19T04:22:54.411Z,17.27
2022-11-19T04:25:20.988Z,17.40
2022-11-19T04:27:47.694Z,17.75
2022-11-19T04:30:14.676Z,16.90
2022-11-19T04:32:42.230Z,17.57
2022-11-19T04:35:09.576Z,16.52
2022-11-19T04:37:36.385Z,15.68
2022-11-19T04:40:03.641Z,16.55
2022-11-19T04:42:30.191Z,16.27
2022-11-19T04:44:56.778Z,16.70
2022-11-19T04:47:23.366Z,16.45
2022-11-19T04:49:49.978Z,16.52
2022-11-19T04:52:16.526Z,16.38
2022-11-19T04:54:43.110Z,16.83
2022-11-19T04:57:09.657Z,16.23
2022-11-19T04:59:36.234Z,15.65
2022-11-19T05:02:02.808Z,17.55
2022-11-19T05:04:29.398Z,16.70
2022-11-19T05:06:56.326Z,16.48
2022-11-19T05:09:22.952Z,16.73
2022-11-19T05:11:49.554Z,15.70
2022-11-19T05:14:16.172Z,16.52
2022-11-19T05:16:42.725Z,16.70
2022-11-19T05:19:09.689Z,16.80
2022-11-19T05:21:36.522Z,15.77
2022-11-19T05:24:03.130Z,16.73
2022-11-19T05:26:29.734Z,16.80
2022-11-19T05:28:56.286Z,16.77
2022-11-19T05:31:22.837Z,17.38
2022-11-19T05:33:49.482Z,15.80
2022-11-19T05:36:16.371Z,16.20
2022-11-19T05:38:42.937Z,16.30
2022-11-19T05:41:09.622Z,16.55
2022-11-19T05:43:36.254Z,16.63
2022-11-19T05:46:03.286Z,15.57
2022-11-19T05:48:30.283Z,15.15
2022-11-19T05:50:56.876Z,16.80
2022-11-19T05:53:23.406Z,16.35
2022-11-19T05:55:49.996Z,16.58
2022-11-19T05:58:16.541Z,16.00
2022-11-19T06:00:43.143Z,15.65
2022-11-19T06:03:10.872Z,16.20
2022-11-19T06:05:40.623Z,15.65
2022-11-19T06:08:07.803Z,15.30
2022-11-19T06:10:34.375Z,15.70
2022-11-19T06:13:01.815Z,16.92
2022-11-19T06:15:28.478Z,15.73
2022-11-19T06:17:56.675Z,15.18
2022-11-19T06:20:23.278Z,15.48
2022-11-19T06:22:49.863Z,15.40
2022-11-19T06:25:16.511Z,13.88
2022-11-19T06:27:43.090Z,15.02
2022-11-19T06:30:10.649Z,15.32
2022-11-19T06:32:37.228Z,15.35
2022-11-19T06:35:04.140Z,14.70
2022-11-19T06:37:30.794Z,15.35
2022-11-19T06:39:57.415Z,15.20
2022-11-19T06:42:36.200Z,15.23
2022-11-19T06:45:12.110Z,15.60
2022-11-19T06:47:40.142Z,14.70
2022-11-19T06:50:09.633Z,14.60
2022-11-19T06:52:36.526Z,14.43
2022-11-19T06:55:03.623Z,14.40
2022-11-19T06:57:30.187Z,14.95
2022-11-19T06:59:56.943Z,15.47
2022-11-19T07:02:23.532Z,14.70
2022-11-19T07:04:50.181Z,15.75
2022-11-19T07:07:16.941Z,14.63
2022-11-19T07:09:43.604Z,14.88
2022-11-19T07:12:10.414Z,15.30
2022-11-19T07:14:37.021Z,15.18
2022-11-19T07:17:05.262Z,14.75
2022-11-19T07:19:31.892Z,15.15
2022-11-19T07:21:58.478Z,14.63
2022-11-19T07:24:25.096Z,14.57
2022-11-19T07:26:52.081Z,14.82
2022-11-19T07:29:18.891Z,15.40
2022-11-19T07:31:50.205Z,14.52
2022-11-19T07:34:17.662Z,14.23
2022-11-19T07:36:44.819Z,13.97
2022-11-19T07:39:11.610Z,15.07
2022-11-19T07:41:57.501Z,14.38
2022-11-19T07:44:24.101Z,14.00
2022-11-19T07:46:50.734Z,14.05
2022-11-19T07:49:17.835Z,13.80
2022-11-19T07:51:44.810Z,14.18
2022-11-19T07:54:12.779Z,14.55
2022-11-19T07:56:39.810Z,13.95
2022-11-19T07:59:06.752Z,14.60
2022-11-19T08:01:33.461Z,13.67
2022-11-19T08:04:00.186Z,14.38
2022-11-19T08:06:28.126Z,14.55
2022-11-19T08:08:58.530Z,13.88
2022-11-19T08:11:25.418Z,15.02
2022-11-19T08:13:53.529Z,14.33
2022-11-19T08:16:39.252Z,14.10
2022-11-19T08:19:11.434Z,15.32
2022-11-19T08:21:42.551Z,15.50
2022-11-19T08:24:10.017Z,14.27
2022-11-19T08:26:37.754Z,15.00
2022-11-19T08:29:05.536Z,14.60
2022-11-19T08:31:32.442Z,15.90
2022-11-19T08:34:01.691Z,13.57
2022-11-19T08:36:28.460Z,13.70
2022-11-19T08:38:59.392Z,15.10
2022-11-19T08:41:45.658Z,14.95
2022-11-19T08:44:13.100Z,14.45
2022-11-19T08:46:40.626Z,14.10
2022-11-19T08:49:07.668Z,14.85
2022-11-19T08:51:34.432Z,15.43
2022-11-19T08:54:01.029Z,14.13
2022-11-19T08:56:27.694Z,14.55
2022-11-19T08:58:58.495Z,13.60
2022-11-19T09:01:27.986Z,13.98
2022-11-19T09:03:54.590Z,13.60
2022-11-19T09:06:21.224Z,14.50
2022-11-19T09:08:47.762Z,13.73
2022-11-19T09:11:17.007Z,13.20
2022-11-19T09:13:43.629Z,13.20
2022-11-19T09:16:11.195Z,12.53
2022-11-19T09:18:40.014Z,13.45
2022-11-19T09:21:08.842Z,12.80
2022-11-19T09:23:35.737Z,11.73
2022-11-19T09:26:05.787Z,11.55
2022-11-19T09:28:32.877Z,11.77
2022-11-19T09:31:01.919Z,11.90
2022-11-19T09:33:31.118Z,13.23
2022-11-19T09:35:57.814Z,11.60
2022-11-19T09:38:24.633Z,11.63
2022-11-19T09:40:55.879Z,11.53
2022-11-19T09:43:45.102Z,10.75
2022-11-19T09:46:24.411Z,10.80
2022-11-19T09:48:55.080Z,10.68
2022-11-19T09:51:29.792Z,11.30
2022-11-19T09:54:19.134Z,11.37
2022-11-19T09:56:47.654Z,11.02
2022-11-19T09:59:34.045Z,9.57
2022-11-19T10:02:00.683Z,10.50
2022-11-19T10:04:31.631Z,10.57
2022-11-19T10:07:21.361Z,10.00
2022-11-19T10:10:20.558Z,10.35
2022-11-19T10:13:26.062Z,10.85
2022-11-19T10:16:10.861Z,9.68
2022-11-19T10:19:03.080Z,10.55
2022-11-19T10:21:37.708Z,10.40
2022-11-19T10:24:52.360Z,9.85
2022-11-19T10:27:47.511Z,9.73
2022-11-19T10:30:20.814Z,9.40
2022-11-19T10:32:57.031Z,8.77
2022-11-19T10:35:29.754Z,9.37
2022-11-19T10:38:03.418Z,10.00
2022-11-19T10:40:36.531Z,9.48
2022-11-19T10:43:23.659Z,8.55
2022-11-19T10:45:50.599Z,9.73
2022-11-19T10:48:37.707Z,9.13
2022-11-19T10:51:17.086Z,8.85
2022-11-19T10:53:45.497Z,9.20
2022-11-19T10:56:19.450Z,9.00
2022-11-19T10:58:54.382Z,8.57
2022-11-19T11:01:29.667Z,9.00
2022-11-19T11:04:17.510Z,9.35
2022-11-19T11:07:04.074Z,8.60
2022-11-19T11:09:34.726Z,8.15
2022-11-19T11:12:35.649Z,8.65
2022-11-19T11:15:12.835Z,9.30
2022-11-19T11:17:42.343Z,8.43
2022-11-19T11:20:17.998Z,8.30
2022-11-19T11:22:48.266Z,8.60
2022-11-19T11:25:27.789Z,8.43
2022-11-19T11:28:16.310Z,8.43
2022-11-19T11:31:00.708Z,8.43
2022-11-19T11:33:39.879Z,8.15
2022-11-19T11:36:10.180Z,8.75
2022-11-19T11:38:45.850Z,8.50
2022-11-19T11:44:26.628Z,8.20
2022-11-19T11:47:02.596Z,8.40
2022-11-19T11:49:35.493Z,7.80
2022-11-19T11:52:04.113Z,8.25
2022-11-19T11:54:31.155Z,8.17
2022-11-19T11:57:25.133Z,8.23
2022-11-19T11:59:51.877Z,9.07
2022-11-19T12:02:27.823Z,8.23
2022-11-19T12:04:55.630Z,8.40
2022-11-19T12:08:02.323Z,7.77
2022-11-19T12:10:34.359Z,8.07
2022-11-19T12:13:21.847Z,7.60
2022-11-19T12:16:03.476Z,7.53
2022-11-19T12:18:38.915Z,7.68
2022-11-19T12:21:34.249Z,7.23
2022-11-19T12:24:30.007Z,7.25
2022-11-19T12:27:06.238Z,7.03
2022-11-19T12:29:57.026Z,7.25
2022-11-19T12:32:38.745Z,6.78
2022-11-19T12:35:16.316Z,7.17
2022-11-19T12:37:42.941Z,6.57
2022-11-19T12:40:39.383Z,7.00
2022-11-19T12:43:46.963Z,7.10
2022-11-19T12:46:35.078Z,6.18
2022-11-19T12:49:46.857Z,6.63
2022-11-19T12:52:31.504Z,6.55
2022-11-19T12:55:12.771Z,6.53
2022-11-19T12:58:10.585Z,5.90
2022-11-19T13:00:45.586Z,5.97
2022-11-19T13:03:21.090Z,6.20
2022-11-19T13:05:57.226Z,6.07
2022-11-19T13:08:41.202Z,5.93
2022-11-19T13:11:38.436Z,5.75
2022-11-19T13:14:17.798Z,5.82
2022-11-19T13:16:44.911Z,5.23
2022-11-19T13:19:27.456Z,5.13
2022-11-19T13:22:15.177Z,5.18
2022-11-19T13:24:47.082Z,5.03
2022-11-19T13:27:22.780Z,4.97
2022-11-19T13:30:06.025Z,5.03
2022-11-19T13:32:55.290Z,4.75
2022-11-19T13:36:05.104Z,5.00
2022-11-19T13:38:44.453Z,4.13
2022-11-19T13:41:59.031Z,4.57
2022-11-19T13:44:43.824Z,4.40
2022-11-19T13:47:18.713Z,3.60
2022-11-19T13:49:51.088Z,3.85
2022-11-19T13:52:41.502Z,4.35
2022-11-19T13:55:23.163Z,3.95
2022-11-19T13:57:50.013Z,4.30
2022-11-19T14:00:28.426Z,4.38
2022-11-19T14:03:12.898Z,4.07
2022-11-19T14:05:58.200Z,3.95
2022-11-19T14:08:40.962Z,3.97
2022-11-19T14:11:21.233Z,3.43
2022-11-19T14:14:35.594Z,4.20
2022-11-19T14:17:58.245Z,4.20
2022-11-19T14:20:52.831Z,3.38
2022-11-19T14:24:06.260Z,3.70
2022-11-19T14:26:41.883Z,3.60
2022-11-19T14:29:26.723Z,4.18
2022-11-19T14:32:06.147Z,3.50
2022-11-19T14:34:40.056Z,3.92
2022-11-19T14:37:24.651Z,4.10
2022-11-19T14:40:07.474Z,3.90
2022-11-19T14:42:54.191Z,3.85
2022-11-19T14:45:21.203Z,3.80
2022-11-19T14:47:47.995Z,3.75
2022-11-19T14:50:28.825Z,4.07
2022-11-19T14:53:00.989Z,3.97
2022-11-19T14:55:30.144Z,3.92
2022-11-19T14:58:06.933Z,4.00
2022-11-19T15:00:37.543Z,3.83
2022-11-19T15:03:22.336Z,3.90
2022-11-19T15:05:49.582Z,4.50
2022-11-19T15:08:18.958Z,4.20
2022-11-19T15:11:10.780Z,4.70
2022-11-19T15:13:39.131Z,4.55
2022-11-19T15:16:09.159Z,4.80
2022-11-19T15:18:44.941Z,4.60
2022-11-19T15:21:39.242Z,4.43
2022-11-19T15:24:17.768Z,4.63
2022-11-19T15:27:17.179Z,4.30
2022-11-19T15:30:05.194Z,4.15
2022-11-19T15:33:12.894Z,5.10
2022-11-19T15:36:04.018Z,4.53
2022-11-19T15:38:42.471Z,5.10
2022-11-19T15:41:14.303Z,4.68
2022-11-19T15:43:45.772Z,4.95
2022-11-19T15:46:41.076Z,4.50
2022-11-19T15:49:16.642Z,5.10
2022-11-19T15:52:03.241Z,5.03
2022-11-19T15:54:34.871Z,5.25
2022-11-19T15:57:24.427Z,5.13
2022-11-19T16:00:00.794Z,5.20
2022-11-19T16:02:35.442Z,5.55
2022-11-19T16:05:02.229Z,5.70
2022-11-19T16:07:30.814Z,5.97
2022-11-19T16:09:59.226Z,6.38
2022-11-19T16:12:46.006Z,5.73
2022-11-19T16:15:42.631Z,5.72
2022-11-19T16:18:13.885Z,5.88
2022-11-19T16:20:42.302Z,6.10
2022-11-19T16:23:11.559Z,6.25
2022-11-19T16:25:43.118Z,6.47
2022-11-19T16:28:15.887Z,5.50
2022-11-19T16:30:51.467Z,6.80
2022-11-19T16:33:23.978Z,5.65
2022-11-19T16:35:53.533Z,5.85
2022-11-19T16:38:27.447Z,6.33
2022-11-19T16:41:14.275Z,6.13
2022-11-19T16:43:44.111Z,5.55
2022-11-19T16:46:15.451Z,6.07
2022-11-19T16:48:42.493Z,5.70
2022-11-19T16:51:32.722Z,6.30
2022-11-19T16:53:59.632Z,6.68
2022-11-19T16:56:32.380Z,7.90
2022-11-19T16:59:01.856Z,7.75
2022-11-19T17:01:29.961Z,7.53
2022-11-19T17:04:08.062Z,7.70
2022-11-19T17:06:37.111Z,8.18
2022-11-19T17:09:05.715Z,7.70
2022-11-19T17:12:06.846Z,8.02
2022-11-19T17:14:36.191Z,8.50
2022-11-19T17:17:03.528Z,9.23
2022-11-19T17:19:35.129Z,9.98
2022-11-19T17:22:06.095Z,10.60
2022-11-19T17:24:42.573Z,9.98
2022-11-19T17:27:30.208Z,10.00
2022-11-19T17:30:10.995Z,9.03
2022-11-19T17:32:44.442Z,8.25
2022-11-19T17:35:37.442Z,8.43
2022-11-19T17:38:27.452Z,7.57
2022-11-19T17:41:00.467Z,7.32
2022-11-19T17:43:53.045Z,7.37
2022-11-19T17:46:21.065Z,7.93
2022-11-19T17:48:48.946Z,6.88
2022-11-19T17:51:18.412Z,7.25
2022-11-19T17:53:45.521Z,7.28
2022-11-19T17:56:16.801Z,7.10
2022-11-19T17:58:43.338Z,7.10
2022-11-19T18:01:10.638Z,7.00
2022-11-19T18:03:39.002Z,7.15
2022-11-19T18:06:08.352Z,7.43
2022-11-19T18:08:36.921Z,7.00
2022-11-19T18:11:04.922Z,6.93
2022-11-19T18:13:35.383Z,7.13
2022-11-19T18:16:02.064Z,8.05
2022-11-19T18:18:28.633Z,7.38
2022-11-19T18:21:00.533Z,7.33
2022-11-19T18:23:28.423Z,7.95
2022-11-19T18:25:55.013Z,7.88
2022-11-19T18:28:21.742Z,8.40
2022-11-19T18:30:48.300Z,8.50
2022-11-19T18:33:14.846Z,8.37
2022-11-19T18:35:41.418Z,7.43
2022-11-19T18:38:08.039Z,8.20
2022-11-19T18:40:35.882Z,7.70
2022-11-19T18:43:21.028Z,7.70
2022-11-19T18:45:47.618Z,8.03
2022-11-19T18:48:14.254Z,7.28
2022-11-19T18:50:41.515Z,7.70
2022-11-19T18:53:10.170Z,7.32
2022-11-19T18:55:36.812Z,7.38
2022-11-19T18:58:03.561Z,7.00
2022-11-19T19:00:30.258Z,7.78
2022-11-19T19:02:56.951Z,7.25
2022-11-19T19:05:23.568Z,7.80
2022-11-19T19:07:50.133Z,6.90
2022-11-19T19:10:16.901Z,7.13
2022-11-19T19:12:43.556Z,7.78
2022-11-19T19:15:10.310Z,7.72
2022-11-19T19:17:36.862Z,7.57
2022-11-19T19:20:03.709Z,7.88
2022-11-19T19:22:30.344Z,7.67
2022-11-19T19:24:58.452Z,7.53
2022-11-19T19:27:25.556Z,7.80
2022-11-19T19:29:52.094Z,7.88
2022-11-19T19:32:18.699Z,7.55
2022-11-19T19:34:45.308Z,7.57
2022-11-19T19:37:11.921Z,7.80
2022-11-19T19:39:38.615Z,7.88
2022-11-19T19:42:05.435Z,7.65
2022-11-19T19:44:32.150Z,7.72
2022-11-19T19:46:59.346Z,7.50
2022-11-19T19:49:26.151Z,6.90
2022-11-19T19:51:52.768Z,8.10
2022-11-19T19:54:19.542Z,7.88
2022-11-19T19:56:46.625Z,8.20
2022-11-19T19:59:14.112Z,7.93
2022-11-19T20:01:44.250Z,8.38
2022-11-19T20:04:11.655Z,7.40
2022-11-19T20:06:43.223Z,7.90
2022-11-19T20:09:09.961Z,7.53
2022-11-19T20:11:37.149Z,7.50
2022-11-19T20:14:04.448Z,8.15
2022-11-19T20:16:32.302Z,7.88
2022-11-19T20:19:00.679Z,8.25
2022-11-19T20:21:31.490Z,7.97
2022-11-19T20:23:58.121Z,8.33
2022-11-19T20:26:27.857Z,8.05
2022-11-19T20:28:59.813Z,8.25
2022-11-19T20:31:27.578Z,8.63
2022-11-19T20:33:57.035Z,8.60
2022-11-19T20:36:25.210Z,9.20
2022-11-19T20:38:52.245Z,8.82
2022-11-19T20:41:52.232Z,8.63
2022-11-19T20:44:22.621Z,8.93
2022-11-19T20:46:58.100Z,8.70
2022-11-19T20:49:30.303Z,8.63
2022-11-19T20:51:57.285Z,8.80
2022-11-19T20:54:24.818Z,8.20
2022-11-19T20:56:53.525Z,8.57
2022-11-19T20:59:21.379Z,8.68
2022-11-19T21:01:50.087Z,8.60
2022-11-19T21:04:16.924Z,8.75
2022-11-19T21:06:43.541Z,8.25
2022-11-19T21:09:10.141Z,8.43
2022-11-19T21:11:36.773Z,8.27
2022-11-19T21:14:03.941Z,9.27
2022-11-19T21:16:31.596Z,8.55
2022-11-19T21:18:58.670Z,8.73
2022-11-19T21:21:26.994Z,9.15
2022-11-19T21:23:54.480Z,8.48
2022-11-19T21:26:23.429Z,9.43
2022-11-19T21:28:52.315Z,8.75
2022-11-19T21:31:22.115Z,8.27
2022-11-19T21:33:49.050Z,7.93
2022-11-19T21:36:15.893Z,8.15
2022-11-19T21:38:42.476Z,8.70
2022-11-19T21:41:09.116Z,8.60
2022-11-19T21:43:35.809Z,8.10
2022-11-19T21:46:07.041Z,8.45
2022-11-19T21:48:33.627Z,9.38
2022-11-19T21:51:04.836Z,8.07
2022-11-19T21:53:31.688Z,8.55
2022-11-19T21:55:58.303Z,8.60
2022-11-19T21:58:24.837Z,8.73
2022-11-19T22:01:00.463Z,8.80
2022-11-19T22:03:28.344Z,8.93
2022-11-19T22:06:12.931Z,8.80
2022-11-19T22:08:41.259Z,8.98
2022-11-19T22:11:28.111Z,8.80
2022-11-19T22:13:59.846Z,8.57
2022-11-19T22:16:27.098Z,9.10
2022-11-19T22:18:53.864Z,8.60
2022-11-19T22:21:20.545Z,8.52
2022-11-19T22:23:47.121Z,8.52
2022-11-19T22:26:13.834Z,8.57
2022-11-19T22:28:40.500Z,8.33
2022-11-19T22:31:07.424Z,8.88
2022-11-19T22:33:36.290Z,8.50
2022-11-19T22:36:09.758Z,8.93
2022-11-19T22:38:38.547Z,8.57
2022-11-19T22:41:11.403Z,7.67
2022-11-19T22:43:38.781Z,8.23
2022-11-19T22:46:06.223Z,8.25
2022-11-19T22:48:33.476Z,8.48
2022-11-19T22:51:04.355Z,7.80
2022-11-19T22:53:30.901Z,8.95
2022-11-19T22:56:01.194Z,8.88
2022-11-19T22:58:27.754Z,8.15
2022-11-19T23:00:54.521Z,8.27
2022-11-19T23:03:21.214Z,8.93
2022-11-19T23:05:54.879Z,8.00
2022-11-19T23:08:21.843Z,8.55
2022-11-19T23:10:49.026Z,7.68
2022-11-19T23:13:31.883Z,7.68
2022-11-19T23:16:04.288Z,7.63
2022-11-19T23:18:33.344Z,9.45
2022-11-19T23:21:03.434Z,9.43
2022-11-19T23:23:30.055Z,8.70
2022-11-19T23:26:00.990Z,7.90
2022-11-19T23:28:29.275Z,8.57
2022-11-19T23:30:55.913Z,9.50
2022-11-19T23:33:23.071Z,9.23
2022-11-19T23:35:49.640Z,9.20
2022-11-19T23:38:16.201Z,8.45
2022-11-19T23:40:42.753Z,9.10
2022-11-19T23:43:09.518Z,8.20
2022-11-19T23:45:36.636Z,7.83
2022-11-19T23:48:03.958Z,8.52
2022-11-19T23:50:30.638Z,8.65
2022-11-19T23:52:57.192Z,8.82
2022-11-19T23:55:23.781Z,8.13
2022-11-19T23:57:50.340Z,8.00
